Terminal Aerodrome Forecast
Issued by NWS Detroit/Pontiac, MI

Home | Current Version | Previous Version | Text Only | Print | Product List | Glossary On
Versions: 1 2 3 4 5 6 7 8 9 10 11 12 13 14 15 16 17 18 19 20 21 22 23 24 25
000
FTUS43 KDTX 132300
TAFDTW
TAF
KDTW 132321Z 1400/1506 27009KT P6SM SCT050
     FM140200 VRB04KT P6SM SCT060
     FM141400 24008KT P6SM BKN060 BKN080
     FM150200 30007KT P6SM BKN080=

USA.gov is the U.S. government's official web portal to all federal, state and local government web resources and services.